sensor_id;sensor_type;location;lat;lon;timestamp;temperature;humidity
3053;DHT22;1536;51.098;6.414;2022-09-01T00:01:17;20.30;92.00
3053;DHT22;1536;51.098;6.414;2022-09-01T00:03:46;20.20;92.00
3053;DHT22;1536;51.098;6.414;2022-09-01T00:06:14;20.20;92.00
3053;DHT22;1536;51.098;6.414;2022-09-01T00:08:46;20.20;91.90
3053;DHT22;1536;51.098;6.414;2022-09-01T00:11:13;20.20;92.00
3053;DHT22;1536;51.098;6.414;2022-09-01T00:13:40;20.20;92.00
3053;DHT22;1536;51.098;6.414;2022-09-01T00:16:08;20.10;91.90
3053;DHT22;1536;51.098;6.414;2022-09-01T00:18:38;20.10;91.80
3053;DHT22;1536;51.098;6.414;2022-09-01T00:21:06;20.10;92.00
3053;DHT22;1536;51.098;6.414;2022-09-01T00:23:33;20.10;92.00
3053;DHT22;1536;51.098;6.414;2022-09-01T00:26:00;20.00;92.00
3053;DHT22;1536;51.098;6.414;2022-09-01T00:28:27;20.00;91.90
3053;DHT22;1536;51.098;6.414;2022-09-01T00:30:53;20.00;91.80
3053;DHT22;1536;51.098;6.414;2022-09-01T00:33:21;20.00;91.60
3053;DHT22;1536;51.098;6.414;2022-09-01T00:35:48;20.00;91.50
3053;DHT22;1536;51.098;6.414;2022-09-01T00:38:15;20.00;91.40
3053;DHT22;1536;51.098;6.414;2022-09-01T00:40:42;20.10;91.40
3053;DHT22;1536;51.098;6.414;2022-09-01T00:43:13;20.10;91.30
3053;DHT22;1536;51.098;6.414;2022-09-01T00:45:40;20.10;91.30
3053;DHT22;1536;51.098;6.414;2022-09-01T00:48:07;20.10;91.40
3053;DHT22;1536;51.098;6.414;2022-09-01T00:50:36;20.10;91.50
3053;DHT22;1536;51.098;6.414;2022-09-01T00:53:05;20.10;92.10
3053;DHT22;1536;51.098;6.414;2022-09-01T00:55:34;20.10;91.80
3053;DHT22;1536;51.098;6.414;2022-09-01T00:58:04;20.10;91.80
3053;DHT22;1536;51.098;6.414;2022-09-01T01:00:34;20.00;91.80
3053;DHT22;1536;51.098;6.414;2022-09-01T01:03:06;20.00;91.80
3053;DHT22;1536;51.098;6.414;2022-09-01T01:05:38;20.00;91.80
3053;DHT22;1536;51.098;6.414;2022-09-01T01:08:06;20.00;92.10
3053;DHT22;1536;51.098;6.414;2022-09-01T01:10:36;20.00;91.70
3053;DHT22;1536;51.098;6.414;2022-09-01T01:13:11;20.00;91.80
3053;DHT22;1536;51.098;6.414;2022-09-01T01:15:38;20.00;91.80
3053;DHT22;1536;51.098;6.414;2022-09-01T01:18:08;20.00;91.90
3053;DHT22;1536;51.098;6.414;2022-09-01T01:20:35;20.00;91.90
3053;DHT22;1536;51.098;6.414;2022-09-01T01:23:24;20.00;91.80
3053;DHT22;1536;51.098;6.414;2022-09-01T01:26:04;19.90;91.70
3053;DHT22;1536;51.098;6.414;2022-09-01T01:28:36;19.90;91.80
3053;DHT22;1536;51.098;6.414;2022-09-01T01:31:06;19.90;91.90
3053;DHT22;1536;51.098;6.414;2022-09-01T01:33:38;19.90;92.10
3053;DHT22;1536;51.098;6.414;2022-09-01T01:36:07;19.80;92.00
3053;DHT22;1536;51.098;6.414;2022-09-01T01:38:37;19.80;91.90
3053;DHT22;1536;51.098;6.414;2022-09-01T01:41:07;19.80;92.00
3053;DHT22;1536;51.098;6.414;2022-09-01T01:43:34;19.80;92.60
3053;DHT22;1536;51.098;6.414;2022-09-01T01:46:04;19.80;92.30
3053;DHT22;1536;51.098;6.414;2022-09-01T01:48:33;19.80;92.30
3053;DHT22;1536;51.098;6.414;2022-09-01T01:51:01;19.80;92.30
3053;DHT22;1536;51.098;6.414;2022-09-01T01:53:30;19.80;92.20
3053;DHT22;1536;51.098;6.414;2022-09-01T01:55:57;19.70;92.10
3053;DHT22;1536;51.098;6.414;2022-09-01T01:58:26;19.70;92.20
3053;DHT22;1536;51.098;6.414;2022-09-01T02:00:55;19.70;92.20
3053;DHT22;1536;51.098;6.414;2022-09-01T02:03:24;19.70;92.20
3053;DHT22;1536;51.098;6.414;2022-09-01T02:05:54;19.70;92.20
3053;DHT22;1536;51.098;6.414;2022-09-01T02:08:23;19.70;92.40
3053;DHT22;1536;51.098;6.414;2022-09-01T02:10:52;19.70;92.60
3053;DHT22;1536;51.098;6.414;2022-09-01T02:13:22;19.60;92.60
3053;DHT22;1536;51.098;6.414;2022-09-01T02:15:54;19.60;92.70
3053;DHT22;1536;51.098;6.414;2022-09-01T02:18:25;19.60;92.80
3053;DHT22;1536;51.098;6.414;2022-09-01T02:20:53;19.50;92.80
3053;DHT22;1536;51.098;6.414;2022-09-01T02:23:23;19.50;92.70
3053;DHT22;1536;51.098;6.414;2022-09-01T02:25:53;19.50;92.80
3053;DHT22;1536;51.098;6.414;2022-09-01T02:28:21;19.40;92.90
3053;DHT22;1536;51.098;6.414;2022-09-01T02:30:51;19.40;93.00
3053;DHT22;1536;51.098;6.414;2022-09-01T02:33:21;19.40;93.00
3053;DHT22;1536;51.098;6.414;2022-09-01T02:35:50;19.40;93.10
3053;DHT22;1536;51.098;6.414;2022-09-01T02:38:18;19.40;93.20
3053;DHT22;1536;51.098;6.414;2022-09-01T02:40:46;19.40;93.20
3053;DHT22;1536;51.098;6.414;2022-09-01T02:43:14;19.30;93.20
3053;DHT22;1536;51.098;6.414;2022-09-01T02:45:45;19.30;93.20
3053;DHT22;1536;51.098;6.414;2022-09-01T02:48:13;19.30;93.20
3053;DHT22;1536;51.098;6.414;2022-09-01T02:50:40;19.30;93.30
3053;DHT22;1536;51.098;6.414;2022-09-01T02:53:08;19.30;93.40
3053;DHT22;1536;51.098;6.414;2022-09-01T02:55:37;19.30;93.40
3053;DHT22;1536;51.098;6.414;2022-09-01T02:58:05;19.30;93.40
3053;DHT22;1536;51.098;6.414;2022-09-01T03:00:35;19.30;93.50
3053;DHT22;1536;51.098;6.414;2022-09-01T03:03:02;19.20;93.50
3053;DHT22;1536;51.098;6.414;2022-09-01T03:05:31;19.20;93.50
3053;DHT22;1536;51.098;6.414;2022-09-01T03:08:00;19.30;93.60
3053;DHT22;1536;51.098;6.414;2022-09-01T03:10:29;19.30;93.60
3053;DHT22;1536;51.098;6.414;2022-09-01T03:12:59;19.30;93.70
3053;DHT22;1536;51.098;6.414;2022-09-01T03:15:26;19.30;93.60
3053;DHT22;1536;51.098;6.414;2022-09-01T03:17:53;19.30;93.60
3053;DHT22;1536;51.098;6.414;2022-09-01T03:20:20;19.30;93.60
3053;DHT22;1536;51.098;6.414;2022-09-01T03:22:48;19.30;93.70
3053;DHT22;1536;51.098;6.414;2022-09-01T03:25:17;19.30;93.70
3053;DHT22;1536;51.098;6.414;2022-09-01T03:27:44;19.30;93.80
3053;DHT22;1536;51.098;6.414;2022-09-01T03:30:13;19.30;93.80
3053;DHT22;1536;51.098;6.414;2022-09-01T03:32:39;19.30;93.80
3053;DHT22;1536;51.098;6.414;2022-09-01T03:35:07;19.30;94.00
3053;DHT22;1536;51.098;6.414;2022-09-01T03:37:34;19.20;93.80
3053;DHT22;1536;51.098;6.414;2022-09-01T03:40:04;19.20;93.80
3053;DHT22;1536;51.098;6.414;2022-09-01T03:42:31;19.20;93.90
3053;DHT22;1536;51.098;6.414;2022-09-01T03:44:58;19.20;93.90
3053;DHT22;1536;51.098;6.414;2022-09-01T03:47:26;19.10;93.90
3053;DHT22;1536;51.098;6.414;2022-09-01T03:49:53;19.10;93.90
3053;DHT22;1536;51.098;6.414;2022-09-01T03:52:20;19.10;93.90
3053;DHT22;1536;51.098;6.414;2022-09-01T03:54:48;19.10;94.00
3053;DHT22;1536;51.098;6.414;2022-09-01T03:57:19;19.10;94.10
3053;DHT22;1536;51.098;6.414;2022-09-01T03:59:47;19.10;94.10
3053;DHT22;1536;51.098;6.414;2022-09-01T04:02:15;19.00;94.10
3053;DHT22;1536;51.098;6.414;2022-09-01T04:04:41;19.00;94.20
3053;DHT22;1536;51.098;6.414;2022-09-01T04:07:08;19.00;94.20
3053;DHT22;1536;51.098;6.414;2022-09-01T04:09:35;19.00;94.30
3053;DHT22;1536;51.098;6.414;2022-09-01T04:12:03;19.00;94.30
3053;DHT22;1536;51.098;6.414;2022-09-01T04:14:33;19.00;94.30
3053;DHT22;1536;51.098;6.414;2022-09-01T04:17:00;19.00;94.20
3053;DHT22;1536;51.098;6.414;2022-09-01T04:19:44;19.00;94.30
3053;DHT22;1536;51.098;6.414;2022-09-01T04:22:12;18.90;94.30
3053;DHT22;1536;51.098;6.414;2022-09-01T04:24:42;18.90;94.40
3053;DHT22;1536;51.098;6.414;2022-09-01T04:27:10;18.90;94.50
3053;DHT22;1536;51.098;6.414;2022-09-01T04:29:39;18.90;94.40
3053;DHT22;1536;51.098;6.414;2022-09-01T04:32:10;18.80;94.40
3053;DHT22;1536;51.098;6.414;2022-09-01T04:34:38;18.80;94.40
3053;DHT22;1536;51.098;6.414;2022-09-01T04:37:07;18.80;94.40
3053;DHT22;1536;51.098;6.414;2022-09-01T04:39:34;18.80;94.40
3053;DHT22;1536;51.098;6.414;2022-09-01T04:42:04;18.80;94.40
3053;DHT22;1536;51.098;6.414;2022-09-01T04:44:34;18.80;94.40
3053;DHT22;1536;51.098;6.414;2022-09-01T04:47:05;18.80;94.50
3053;DHT22;1536;51.098;6.414;2022-09-01T04:49:36;18.70;94.40
3053;DHT22;1536;51.098;6.414;2022-09-01T04:52:03;18.70;94.50
3053;DHT22;1536;51.098;6.414;2022-09-01T04:54:30;18.70;94.50
3053;DHT22;1536;51.098;6.414;2022-09-01T04:57:01;18.70;94.50
3053;DHT22;1536;51.098;6.414;2022-09-01T04:59:30;18.70;94.60
3053;DHT22;1536;51.098;6.414;2022-09-01T05:01:57;18.60;94.70
3053;DHT22;1536;51.098;6.414;2022-09-01T05:04:29;18.60;94.80
3053;DHT22;1536;51.098;6.414;2022-09-01T05:06:59;18.60;94.90
3053;DHT22;1536;51.098;6.414;2022-09-01T05:09:27;18.60;94.90
3053;DHT22;1536;51.098;6.414;2022-09-01T05:11:55;18.60;94.90
3053;DHT22;1536;51.098;6.414;2022-09-01T05:14:22;18.50;94.90
3053;DHT22;1536;51.098;6.414;2022-09-01T05:16:52;18.50;94.90
3053;DHT22;1536;51.098;6.414;2022-09-01T05:19:21;18.50;95.00
3053;DHT22;1536;51.098;6.414;2022-09-01T05:21:50;18.50;95.10
3053;DHT22;1536;51.098;6.414;2022-09-01T05:24:22;18.50;95.10
3053;DHT22;1536;51.098;6.414;2022-09-01T05:26:49;18.50;95.10
3053;DHT22;1536;51.098;6.414;2022-09-01T05:29:17;18.50;95.30
3053;DHT22;1536;51.098;6.414;2022-09-01T05:31:47;18.50;95.20
3053;DHT22;1536;51.098;6.414;2022-09-01T05:34:15;18.50;95.10
3053;DHT22;1536;51.098;6.414;2022-09-01T05:36:47;18.50;95.10
3053;DHT22;1536;51.098;6.414;2022-09-01T05:39:17;18.50;95.30
3053;DHT22;1536;51.098;6.414;2022-09-01T05:41:45;18.60;95.40
3053;DHT22;1536;51.098;6.414;2022-09-01T05:44:14;18.70;95.40
3053;DHT22;1536;51.098;6.414;2022-09-01T05:46:41;18.70;95.50
3053;DHT22;1536;51.098;6.414;2022-09-01T05:49:10;18.80;95.40
3053;DHT22;1536;51.098;6.414;2022-09-01T05:51:40;18.80;95.50
3053;DHT22;1536;51.098;6.414;2022-09-01T05:54:08;18.80;95.60
3053;DHT22;1536;51.098;6.414;2022-09-01T05:56:38;18.90;95.70
3053;DHT22;1536;51.098;6.414;2022-09-01T05:59:05;18.90;95.70
3053;DHT22;1536;51.098;6.414;2022-09-01T06:01:32;18.90;95.60
3053;DHT22;1536;51.098;6.414;2022-09-01T06:04:07;19.00;95.70
3053;DHT22;1536;51.098;6.414;2022-09-01T06:06:38;19.00;95.80
3053;DHT22;1536;51.098;6.414;2022-09-01T06:09:07;19.00;95.70
3053;DHT22;1536;51.098;6.414;2022-09-01T06:11:36;19.10;95.60
3053;DHT22;1536;51.098;6.414;2022-09-01T06:14:03;19.10;95.70
3053;DHT22;1536;51.098;6.414;2022-09-01T06:16:30;19.20;95.90
3053;DHT22;1536;51.098;6.414;2022-09-01T06:18:57;19.20;95.90
3053;DHT22;1536;51.098;6.414;2022-09-01T06:21:25;19.20;96.00
3053;DHT22;1536;51.098;6.414;2022-09-01T06:23:53;19.30;95.90
3053;DHT22;1536;51.098;6.414;2022-09-01T06:26:24;19.30;95.80
3053;DHT22;1536;51.098;6.414;2022-09-01T06:28:55;19.40;96.20
3053;DHT22;1536;51.098;6.414;2022-09-01T06:31:24;19.40;96.00
3053;DHT22;1536;51.098;6.414;2022-09-01T06:33:53;19.40;96.00
3053;DHT22;1536;51.098;6.414;2022-09-01T06:36:22;19.50;96.10
3053;DHT22;1536;51.098;6.414;2022-09-01T06:38:51;19.50;96.10
3053;DHT22;1536;51.098;6.414;2022-09-01T06:41:20;19.60;96.20
3053;DHT22;1536;51.098;6.414;2022-09-01T06:43:49;19.60;96.20
3053;DHT22;1536;51.098;6.414;2022-09-01T06:46:18;19.60;96.20
3053;DHT22;1536;51.098;6.414;2022-09-01T06:48:46;19.70;96.20
3053;DHT22;1536;51.098;6.414;2022-09-01T06:51:14;19.70;96.00
3053;DHT22;1536;51.098;6.414;2022-09-01T06:53:42;19.80;96.10
3053;DHT22;1536;51.098;6.414;2022-09-01T06:56:10;19.80;96.00
3053;DHT22;1536;51.098;6.414;2022-09-01T06:58:38;19.90;95.80
3053;DHT22;1536;51.098;6.414;2022-09-01T07:01:07;19.90;95.80
3053;DHT22;1536;51.098;6.414;2022-09-01T07:03:42;20.00;95.70
3053;DHT22;1536;51.098;6.414;2022-09-01T07:06:10;20.00;95.70
3053;DHT22;1536;51.098;6.414;2022-09-01T07:08:40;20.10;95.90
3053;DHT22;1536;51.098;6.414;2022-09-01T07:11:17;20.10;96.00
3053;DHT22;1536;51.098;6.414;2022-09-01T07:13:48;20.20;96.00
3053;DHT22;1536;51.098;6.414;2022-09-01T07:16:16;20.30;96.10
3053;DHT22;1536;51.098;6.414;2022-09-01T07:18:47;20.30;95.90
3053;DHT22;1536;51.098;6.414;2022-09-01T07:21:14;20.30;95.80
3053;DHT22;1536;51.098;6.414;2022-09-01T07:23:40;20.40;95.70
3053;DHT22;1536;51.098;6.414;2022-09-01T07:26:09;20.40;95.60
3053;DHT22;1536;51.098;6.414;2022-09-01T07:28:36;20.50;95.60
3053;DHT22;1536;51.098;6.414;2022-09-01T07:31:03;20.50;95.50
3053;DHT22;1536;51.098;6.414;2022-09-01T07:33:33;20.60;95.50
3053;DHT22;1536;51.098;6.414;2022-09-01T07:36:01;20.60;95.50
3053;DHT22;1536;51.098;6.414;2022-09-01T07:38:29;20.70;95.50
3053;DHT22;1536;51.098;6.414;2022-09-01T07:40:57;20.70;95.40
3053;DHT22;1536;51.098;6.414;2022-09-01T07:43:25;20.80;95.40
3053;DHT22;1536;51.098;6.414;2022-09-01T07:45:54;20.80;95.30
3053;DHT22;1536;51.098;6.414;2022-09-01T07:48:25;20.90;95.30
3053;DHT22;1536;51.098;6.414;2022-09-01T07:50:54;20.90;95.30
3053;DHT22;1536;51.098;6.414;2022-09-01T07:53:25;20.90;95.20
3053;DHT22;1536;51.098;6.414;2022-09-01T07:55:58;21.00;95.20
3053;DHT22;1536;51.098;6.414;2022-09-01T07:58:27;21.00;94.90
3053;DHT22;1536;51.098;6.414;2022-09-01T08:00:54;21.00;94.80
3053;DHT22;1536;51.098;6.414;2022-09-01T08:03:27;21.10;94.90
3053;DHT22;1536;51.098;6.414;2022-09-01T08:05:55;21.10;94.50
3053;DHT22;1536;51.098;6.414;2022-09-01T08:08:26;21.20;94.40
3053;DHT22;1536;51.098;6.414;2022-09-01T08:10:54;21.20;94.30
3053;DHT22;1536;51.098;6.414;2022-09-01T08:13:20;21.30;94.30
3053;DHT22;1536;51.098;6.414;2022-09-01T08:15:47;21.30;94.20
3053;DHT22;1536;51.098;6.414;2022-09-01T08:18:14;21.30;94.10
3053;DHT22;1536;51.098;6.414;2022-09-01T08:20:42;21.40;94.00
3053;DHT22;1536;51.098;6.414;2022-09-01T08:23:12;21.40;93.90
3053;DHT22;1536;51.098;6.414;2022-09-01T08:25:41;21.50;93.80
3053;DHT22;1536;51.098;6.414;2022-09-01T08:28:10;21.50;93.80
3053;DHT22;1536;51.098;6.414;2022-09-01T08:30:39;21.50;93.80
3053;DHT22;1536;51.098;6.414;2022-09-01T08:33:07;21.60;93.80
3053;DHT22;1536;51.098;6.414;2022-09-01T08:35:37;21.60;93.70
3053;DHT22;1536;51.098;6.414;2022-09-01T08:38:04;21.70;93.80
3053;DHT22;1536;51.098;6.414;2022-09-01T08:40:30;21.70;93.70
3053;DHT22;1536;51.098;6.414;2022-09-01T08:43:10;21.80;94.00
3053;DHT22;1536;51.098;6.414;2022-09-01T08:45:46;21.80;93.60
3053;DHT22;1536;51.098;6.414;2022-09-01T08:48:16;21.90;93.50
3053;DHT22;1536;51.098;6.414;2022-09-01T08:50:46;22.00;93.50
3053;DHT22;1536;51.098;6.414;2022-09-01T08:53:20;22.00;93.30
3053;DHT22;1536;51.098;6.414;2022-09-01T08:55:52;22.20;93.20
3053;DHT22;1536;51.098;6.414;2022-09-01T08:58:22;22.30;93.10
3053;DHT22;1536;51.098;6.414;2022-09-01T09:00:54;22.40;92.90
3053;DHT22;1536;51.098;6.414;2022-09-01T09:03:28;22.50;92.70
3053;DHT22;1536;51.098;6.414;2022-09-01T09:06:05;22.50;92.60
3053;DHT22;1536;51.098;6.414;2022-09-01T09:08:56;22.60;92.30
3053;DHT22;1536;51.098;6.414;2022-09-01T09:11:39;22.70;92.00
3053;DHT22;1536;51.098;6.414;2022-09-01T09:14:14;22.80;91.80
3053;DHT22;1536;51.098;6.414;2022-09-01T09:16:47;22.90;91.00
3053;DHT22;1536;51.098;6.414;2022-09-01T09:19:20;22.90;90.70
3053;DHT22;1536;51.098;6.414;2022-09-01T09:21:49;23.00;90.80
3053;DHT22;1536;51.098;6.414;2022-09-01T09:24:27;23.00;90.60
3053;DHT22;1536;51.098;6.414;2022-09-01T09:26:55;23.10;90.60
3053;DHT22;1536;51.098;6.414;2022-09-01T09:29:25;23.20;90.30
3053;DHT22;1536;51.098;6.414;2022-09-01T09:32:02;23.30;89.70
3053;DHT22;1536;51.098;6.414;2022-09-01T09:34:32;23.30;89.10
3053;DHT22;1536;51.098;6.414;2022-09-01T09:37:23;23.40;89.00
3053;DHT22;1536;51.098;6.414;2022-09-01T09:40:10;23.40;88.20
3053;DHT22;1536;51.098;6.414;2022-09-01T09:42:39;23.50;87.50
3053;DHT22;1536;51.098;6.414;2022-09-01T09:45:21;23.60;87.40
3053;DHT22;1536;51.098;6.414;2022-09-01T09:47:49;23.70;86.10
3053;DHT22;1536;51.098;6.414;2022-09-01T09:50:21;23.80;85.80
3053;DHT22;1536;51.098;6.414;2022-09-01T09:52:50;23.80;84.80
3053;DHT22;1536;51.098;6.414;2022-09-01T09:55:28;23.80;85.30
3053;DHT22;1536;51.098;6.414;2022-09-01T09:57:58;24.00;84.40
3053;DHT22;1536;51.098;6.414;2022-09-01T10:00:29;24.00;84.30
3053;DHT22;1536;51.098;6.414;2022-09-01T10:02:59;24.00;84.40
3053;DHT22;1536;51.098;6.414;2022-09-01T10:05:37;24.00;83.40
3053;DHT22;1536;51.098;6.414;2022-09-01T10:08:06;24.00;83.00
3053;DHT22;1536;51.098;6.414;2022-09-01T10:10:38;24.00;82.30
3053;DHT22;1536;51.098;6.414;2022-09-01T10:13:10;24.00;81.40
3053;DHT22;1536;51.098;6.414;2022-09-01T10:15:40;23.90;80.80
3053;DHT22;1536;51.098;6.414;2022-09-01T10:18:13;23.90;81.30
3053;DHT22;1536;51.098;6.414;2022-09-01T10:20:44;24.00;80.10
3053;DHT22;1536;51.098;6.414;2022-09-01T10:23:13;24.00;80.00
3053;DHT22;1536;51.098;6.414;2022-09-01T10:25:39;23.90;79.20
3053;DHT22;1536;51.098;6.414;2022-09-01T10:28:10;23.90;78.20
3053;DHT22;1536;51.098;6.414;2022-09-01T10:30:43;23.90;78.00
3053;DHT22;1536;51.098;6.414;2022-09-01T10:33:12;23.80;77.80
3053;DHT22;1536;51.098;6.414;2022-09-01T10:35:42;23.90;78.00
3053;DHT22;1536;51.098;6.414;2022-09-01T10:38:14;23.90;77.90
3053;DHT22;1536;51.098;6.414;2022-09-01T10:40:43;23.90;77.20
3053;DHT22;1536;51.098;6.414;2022-09-01T10:43:33;24.00;76.80
3053;DHT22;1536;51.098;6.414;2022-09-01T10:46:28;24.10;77.10
3053;DHT22;1536;51.098;6.414;2022-09-01T10:49:21;24.10;76.00
3053;DHT22;1536;51.098;6.414;2022-09-01T10:52:07;24.10;73.80
3053;DHT22;1536;51.098;6.414;2022-09-01T10:55:07;24.10;75.10
3053;DHT22;1536;51.098;6.414;2022-09-01T10:57:43;24.20;74.30
3053;DHT22;1536;51.098;6.414;2022-09-01T11:00:48;24.20;74.70
3053;DHT22;1536;51.098;6.414;2022-09-01T11:06:54;24.30;73.40
3053;DHT22;1536;51.098;6.414;2022-09-01T11:09:25;24.30;73.60
3053;DHT22;1536;51.098;6.414;2022-09-01T11:12:10;24.40;73.60
3053;DHT22;1536;51.098;6.414;2022-09-01T11:14:48;24.40;72.40
3053;DHT22;1536;51.098;6.414;2022-09-01T11:17:19;24.40;73.00
3053;DHT22;1536;51.098;6.414;2022-09-01T11:19:53;24.40;72.50
3053;DHT22;1536;51.098;6.414;2022-09-01T11:22:26;24.40;72.50
3053;DHT22;1536;51.098;6.414;2022-09-01T11:25:32;24.40;71.60
3053;DHT22;1536;51.098;6.414;2022-09-01T11:31:02;24.50;72.70
3053;DHT22;1536;51.098;6.414;2022-09-01T11:33:48;24.50;72.60
3053;DHT22;1536;51.098;6.414;2022-09-01T11:36:25;24.50;71.50
3053;DHT22;1536;51.098;6.414;2022-09-01T11:39:01;24.60;71.20
3053;DHT22;1536;51.098;6.414;2022-09-01T11:41:33;24.60;71.50
3053;DHT22;1536;51.098;6.414;2022-09-01T11:44:08;24.60;70.50
3053;DHT22;1536;51.098;6.414;2022-09-01T11:46:37;24.60;69.70
3053;DHT22;1536;51.098;6.414;2022-09-01T11:49:26;24.70;70.40
3053;DHT22;1536;51.098;6.414;2022-09-01T11:51:54;24.70;69.90
3053;DHT22;1536;51.098;6.414;2022-09-01T11:54:23;24.70;71.00
3053;DHT22;1536;51.098;6.414;2022-09-01T11:56:51;24.70;70.10
3053;DHT22;1536;51.098;6.414;2022-09-01T11:59:32;24.80;69.30
3053;DHT22;1536;51.098;6.414;2022-09-01T12:01:59;24.80;69.70
3053;DHT22;1536;51.098;6.414;2022-09-01T12:04:31;24.80;69.30
3053;DHT22;1536;51.098;6.414;2022-09-01T12:07:03;24.80;68.80
3053;DHT22;1536;51.098;6.414;2022-09-01T12:09:37;24.80;68.70
3053;DHT22;1536;51.098;6.414;2022-09-01T12:12:23;24.80;69.10
3053;DHT22;1536;51.098;6.414;2022-09-01T12:14:55;24.90;69.50
3053;DHT22;1536;51.098;6.414;2022-09-01T12:17:22;24.90;69.90
3053;DHT22;1536;51.098;6.414;2022-09-01T12:19:49;24.90;71.40
3053;DHT22;1536;51.098;6.414;2022-09-01T12:22:17;25.00;71.90
3053;DHT22;1536;51.098;6.414;2022-09-01T12:24:49;25.00;71.60
3053;DHT22;1536;51.098;6.414;2022-09-01T12:27:16;25.00;71.00
3053;DHT22;1536;51.098;6.414;2022-09-01T12:29:43;25.10;69.80
3053;DHT22;1536;51.098;6.414;2022-09-01T12:32:11;25.10;70.00
3053;DHT22;1536;51.098;6.414;2022-09-01T12:34:42;25.20;70.10
3053;DHT22;1536;51.098;6.414;2022-09-01T12:37:17;25.20;67.80
3053;DHT22;1536;51.098;6.414;2022-09-01T12:39:47;25.20;68.40
3053;DHT22;1536;51.098;6.414;2022-09-01T12:42:24;25.30;68.50
3053;DHT22;1536;51.098;6.414;2022-09-01T12:44:54;25.30;68.50
3053;DHT22;1536;51.098;6.414;2022-09-01T12:47:45;25.40;67.90
3053;DHT22;1536;51.098;6.414;2022-09-01T12:50:43;25.50;67.60
3053;DHT22;1536;51.098;6.414;2022-09-01T12:53:20;25.50;68.10
3053;DHT22;1536;51.098;6.414;2022-09-01T12:55:59;25.60;68.20
3053;DHT22;1536;51.098;6.414;2022-09-01T12:58:28;25.60;68.30
3053;DHT22;1536;51.098;6.414;2022-09-01T13:00:59;25.70;65.50
3053;DHT22;1536;51.098;6.414;2022-09-01T13:03:27;25.60;66.90
3053;DHT22;1536;51.098;6.414;2022-09-01T13:05:56;25.70;66.90
3053;DHT22;1536;51.098;6.414;2022-09-01T13:08:26;25.70;67.40
3053;DHT22;1536;51.098;6.414;2022-09-01T13:11:01;25.70;67.50
3053;DHT22;1536;51.098;6.414;2022-09-01T13:13:28;25.70;67.70
3053;DHT22;1536;51.098;6.414;2022-09-01T13:15:57;25.70;66.80
3053;DHT22;1536;51.098;6.414;2022-09-01T13:18:25;25.80;67.00
3053;DHT22;1536;51.098;6.414;2022-09-01T13:20:53;25.80;67.70
3053;DHT22;1536;51.098;6.414;2022-09-01T13:23:21;25.90;68.30
3053;DHT22;1536;51.098;6.414;2022-09-01T13:25:48;25.90;68.10
3053;DHT22;1536;51.098;6.414;2022-09-01T13:28:17;25.90;68.20
3053;DHT22;1536;51.098;6.414;2022-09-01T13:30:48;25.90;67.40
3053;DHT22;1536;51.098;6.414;2022-09-01T13:33:17;25.80;67.00
3053;DHT22;1536;51.098;6.414;2022-09-01T13:35:44;25.80;67.20
3053;DHT22;1536;51.098;6.414;2022-09-01T13:38:11;25.80;66.60
3053;DHT22;1536;51.098;6.414;2022-09-01T13:40:40;25.70;66.70
3053;DHT22;1536;51.098;6.414;2022-09-01T13:43:07;25.70;67.20
3053;DHT22;1536;51.098;6.414;2022-09-01T13:45:36;25.70;67.50
3053;DHT22;1536;51.098;6.414;2022-09-01T13:48:05;25.70;68.00
3053;DHT22;1536;51.098;6.414;2022-09-01T13:50:33;25.60;68.70
3053;DHT22;1536;51.098;6.414;2022-09-01T13:53:00;25.60;69.60
3053;DHT22;1536;51.098;6.414;2022-09-01T13:55:29;25.60;69.10
3053;DHT22;1536;51.098;6.414;2022-09-01T13:57:56;25.60;68.70
3053;DHT22;1536;51.098;6.414;2022-09-01T14:00:25;25.60;68.60
3053;DHT22;1536;51.098;6.414;2022-09-01T14:02:58;25.70;68.70
3053;DHT22;1536;51.098;6.414;2022-09-01T14:05:30;25.70;68.60
3053;DHT22;1536;51.098;6.414;2022-09-01T14:07:58;25.70;68.30
3053;DHT22;1536;51.098;6.414;2022-09-01T14:10:25;25.70;68.10
3053;DHT22;1536;51.098;6.414;2022-09-01T14:12:52;25.80;68.30
3053;DHT22;1536;51.098;6.414;2022-09-01T14:15:20;25.90;68.50
3053;DHT22;1536;51.098;6.414;2022-09-01T14:17:50;26.00;68.50
3053;DHT22;1536;51.098;6.414;2022-09-01T14:20:20;26.10;67.10
3053;DHT22;1536;51.098;6.414;2022-09-01T14:22:48;26.20;66.80
3053;DHT22;1536;51.098;6.414;2022-09-01T14:25:17;26.30;67.30
3053;DHT22;1536;51.098;6.414;2022-09-01T14:27:45;26.40;66.60
3053;DHT22;1536;51.098;6.414;2022-09-01T14:30:15;26.40;65.20
3053;DHT22;1536;51.098;6.414;2022-09-01T14:32:42;26.50;65.20
3053;DHT22;1536;51.098;6.414;2022-09-01T14:35:09;26.50;65.20
3053;DHT22;1536;51.098;6.414;2022-09-01T14:37:38;26.60;65.60
3053;DHT22;1536;51.098;6.414;2022-09-01T14:40:07;26.70;65.80
3053;DHT22;1536;51.098;6.414;2022-09-01T14:42:34;26.70;65.70
3053;DHT22;1536;51.098;6.414;2022-09-01T14:45:01;26.80;65.20
3053;DHT22;1536;51.098;6.414;2022-09-01T14:47:30;26.90;63.50
3053;DHT22;1536;51.098;6.414;2022-09-01T14:49:56;26.90;64.60
3053;DHT22;1536;51.098;6.414;2022-09-01T14:52:23;26.90;64.10
3053;DHT22;1536;51.098;6.414;2022-09-01T14:54:51;27.00;65.10
3053;DHT22;1536;51.098;6.414;2022-09-01T14:57:18;27.00;63.80
3053;DHT22;1536;51.098;6.414;2022-09-01T14:59:45;27.10;63.50
3053;DHT22;1536;51.098;6.414;2022-09-01T15:02:12;27.00;63.80
3053;DHT22;1536;51.098;6.414;2022-09-01T15:04:39;27.10;64.30
3053;DHT22;1536;51.098;6.414;2022-09-01T15:07:06;27.10;63.60
3053;DHT22;1536;51.098;6.414;2022-09-01T15:09:34;27.10;63.70
3053;DHT22;1536;51.098;6.414;2022-09-01T15:12:04;27.10;63.50
3053;DHT22;1536;51.098;6.414;2022-09-01T15:14:31;27.10;63.30
3053;DHT22;1536;51.098;6.414;2022-09-01T15:16:58;27.10;63.90
3053;DHT22;1536;51.098;6.414;2022-09-01T15:19:25;27.10;65.00
3053;DHT22;1536;51.098;6.414;2022-09-01T15:21:52;27.10;62.80
3053;DHT22;1536;51.098;6.414;2022-09-01T15:24:18;27.20;63.20
3053;DHT22;1536;51.098;6.414;2022-09-01T15:26:45;27.20;62.50
3053;DHT22;1536;51.098;6.414;2022-09-01T15:29:13;27.10;62.60
3053;DHT22;1536;51.098;6.414;2022-09-01T15:31:42;27.10;62.70
3053;DHT22;1536;51.098;6.414;2022-09-01T15:34:10;27.10;62.70
3053;DHT22;1536;51.098;6.414;2022-09-01T15:36:39;26.90;62.50
3053;DHT22;1536;51.098;6.414;2022-09-01T15:39:07;26.90;62.90
3053;DHT22;1536;51.098;6.414;2022-09-01T15:41:35;26.70;62.60
3053;DHT22;1536;51.098;6.414;2022-09-01T15:44:03;26.60;63.80
3053;DHT22;1536;51.098;6.414;2022-09-01T15:46:32;26.60;64.00
3053;DHT22;1536;51.098;6.414;2022-09-01T15:49:00;26.50;63.90
3053;DHT22;1536;51.098;6.414;2022-09-01T15:51:31;26.40;64.40
3053;DHT22;1536;51.098;6.414;2022-09-01T15:54:00;26.30;65.00
3053;DHT22;1536;51.098;6.414;2022-09-01T15:56:28;26.20;65.60
3053;DHT22;1536;51.098;6.414;2022-09-01T15:58:56;26.10;65.90
3053;DHT22;1536;51.098;6.414;2022-09-01T16:01:24;25.90;66.10
3053;DHT22;1536;51.098;6.414;2022-09-01T16:03:53;25.90;67.00
3053;DHT22;1536;51.098;6.414;2022-09-01T16:06:20;25.80;67.50
3053;DHT22;1536;51.098;6.414;2022-09-01T16:08:47;25.70;67.50
3053;DHT22;1536;51.098;6.414;2022-09-01T16:11:14;25.60;68.10
3053;DHT22;1536;51.098;6.414;2022-09-01T16:13:42;25.60;68.30
3053;DHT22;1536;51.098;6.414;2022-09-01T16:16:14;25.60;68.40
3053;DHT22;1536;51.098;6.414;2022-09-01T16:18:54;25.60;68.10
3053;DHT22;1536;51.098;6.414;2022-09-01T16:21:28;25.50;68.20
3053;DHT22;1536;51.098;6.414;2022-09-01T16:24:03;25.50;68.00
3053;DHT22;1536;51.098;6.414;2022-09-01T16:26:30;25.50;68.20
3053;DHT22;1536;51.098;6.414;2022-09-01T16:28:59;25.50;68.60